PVG315 LOWW-LOWS
Flight info
| Callsign | PVG315 |
|---|---|
| Flight time | 0h 30m |
| Altitude | 16000 |
| Route | SOVIL DCT SITNI DCT BAGSI DCT MATIG MATIG2R |
| Aircraft | A321/M-SDE3FGHIRWY/LB1 |
Departure
| Time | 2026-04-26 08:19 |
|---|---|
| Airport | Vienna International Airport (LOWW) |
Arrival
| Time | 2026-04-26 08:50 |
|---|---|
| Airport | Salzburg Airport (LOWS) |
| Time | Latitude | Longitude | Altitude | Speed | Heading |
|---|---|---|---|---|---|
| 2026-04-26 08:07 | 48.12062 | 16.55296 | 610 ft | 0 kts | 296° |
| 2026-04-26 08:12 | 48.12065 | 16.55286 | 613 ft | 2 kts | 296° |
| 2026-04-26 08:13 | 48.12072 | 16.55255 | 609 ft | 4 kts | 274° |
| 2026-04-26 08:13 | 48.12053 | 16.55217 | 619 ft | 5 kts | 216° |
| 2026-04-26 08:13 | 48.12012 | 16.55186 | 614 ft | 8 kts | 204° |
| 2026-04-26 08:13 | 48.11960 | 16.55198 | 623 ft | 7 kts | 158° |
| 2026-04-26 08:14 | 48.11905 | 16.55194 | 616 ft | 9 kts | 181° |
| 2026-04-26 08:14 | 48.11864 | 16.55265 | 619 ft | 10 kts | 116° |
| 2026-04-26 08:14 | 48.11829 | 16.55373 | 621 ft | 12 kts | 116° |
| 2026-04-26 08:14 | 48.11788 | 16.55497 | 617 ft | 14 kts | 116° |
| 2026-04-26 08:15 | 48.11744 | 16.55634 | 620 ft | 16 kts | 116° |
| 2026-04-26 08:15 | 48.11694 | 16.55786 | 614 ft | 15 kts | 116° |
| 2026-04-26 08:15 | 48.11646 | 16.55935 | 611 ft | 17 kts | 116° |
| 2026-04-26 08:15 | 48.11593 | 16.56097 | 614 ft | 18 kts | 116° |
| 2026-04-26 08:16 | 48.11536 | 16.56274 | 614 ft | 20 kts | 116° |
| 2026-04-26 08:16 | 48.11473 | 16.56463 | 618 ft | 21 kts | 116° |
| 2026-04-26 08:16 | 48.11408 | 16.56665 | 621 ft | 22 kts | 116° |
| 2026-04-26 08:16 | 48.11338 | 16.56879 | 625 ft | 24 kts | 116° |
| 2026-04-26 08:17 | 48.11266 | 16.57107 | 616 ft | 25 kts | 115° |
| 2026-04-26 08:17 | 48.11191 | 16.57330 | 622 ft | 22 kts | 116° |
| 2026-04-26 08:17 | 48.11123 | 16.57537 | 619 ft | 17 kts | 116° |
| 2026-04-26 08:17 | 48.11055 | 16.57644 | 612 ft | 15 kts | 174° |
| 2026-04-26 08:18 | 48.10964 | 16.57590 | 619 ft | 14 kts | 205° |
| 2026-04-26 08:18 | 48.10929 | 16.57491 | 618 ft | 13 kts | 295° |
| 2026-04-26 08:18 | 48.10935 | 16.57472 | 613 ft | 3 kts | 295° |
| 2026-04-26 08:18 | 48.10988 | 16.57300 | 620 ft | 51 kts | 296° |
| 2026-04-26 08:19 | 48.11254 | 16.56473 | 613 ft | 123 kts | 295° |
| 2026-04-26 08:19 | 48.11695 | 16.55103 | 780 ft | 160 kts | 301° |
| 2026-04-26 08:19 | 48.12119 | 16.53546 | 1472 ft | 168 kts | 283° |
| 2026-04-26 08:19 | 48.11848 | 16.51741 | 2231 ft | 188 kts | 254° |
| 2026-04-26 08:20 | 48.11286 | 16.49985 | 3007 ft | 186 kts | 252° |
| 2026-04-26 08:20 | 48.10704 | 16.48267 | 3723 ft | 185 kts | 253° |
| 2026-04-26 08:20 | 48.10111 | 16.46482 | 4161 ft | 202 kts | 252° |
| 2026-04-26 08:20 | 48.09379 | 16.44532 | 4450 ft | 230 kts | 244° |
| 2026-04-26 08:21 | 48.08391 | 16.42466 | 4842 ft | 256 kts | 240° |
| 2026-04-26 08:21 | 48.07279 | 16.40291 | 5581 ft | 265 kts | 240° |
| 2026-04-26 08:21 | 48.06163 | 16.38145 | 6539 ft | 265 kts | 240° |
| 2026-04-26 08:21 | 48.05080 | 16.35942 | 7426 ft | 260 kts | 248° |
| 2026-04-26 08:22 | 48.04521 | 16.33442 | 8211 ft | 251 kts | 271° |
| 2026-04-26 08:22 | 48.04512 | 16.30844 | 9023 ft | 250 kts | 277° |
| 2026-04-26 08:22 | 48.04558 | 16.28232 | 9834 ft | 254 kts | 278° |
| 2026-04-26 08:22 | 48.04612 | 16.25541 | 10367 ft | 268 kts | 278° |
| 2026-04-26 08:23 | 48.04675 | 16.22636 | 10554 ft | 291 kts | 277° |
| 2026-04-26 08:23 | 48.04741 | 16.19486 | 10721 ft | 314 kts | 277° |
| 2026-04-26 08:23 | 48.04803 | 16.16116 | 11023 ft | 330 kts | 276° |
| 2026-04-26 08:23 | 48.04853 | 16.12692 | 11576 ft | 337 kts | 276° |
| 2026-04-26 08:24 | 48.04901 | 16.09172 | 12189 ft | 342 kts | 276° |
| 2026-04-26 08:24 | 48.04947 | 16.05585 | 12819 ft | 347 kts | 276° |
| 2026-04-26 08:24 | 48.04995 | 16.01960 | 13407 ft | 352 kts | 275° |
| 2026-04-26 08:24 | 48.05042 | 15.98265 | 14016 ft | 357 kts | 276° |
| 2026-04-26 08:25 | 48.05088 | 15.94533 | 14573 ft | 362 kts | 275° |
| 2026-04-26 08:25 | 48.05136 | 15.90757 | 15111 ft | 366 kts | 275° |
| 2026-04-26 08:25 | 48.05188 | 15.86930 | 15658 ft | 370 kts | 275° |
| 2026-04-26 08:25 | 48.05241 | 15.83073 | 16225 ft | 374 kts | 275° |
| 2026-04-26 08:26 | 48.05291 | 15.79169 | 16799 ft | 377 kts | 275° |
| 2026-04-26 08:26 | 48.05337 | 15.75232 | 17345 ft | 381 kts | 275° |
| 2026-04-26 08:26 | 48.05381 | 15.71246 | 17883 ft | 385 kts | 275° |
| 2026-04-26 08:26 | 48.05425 | 15.67223 | 18446 ft | 388 kts | 274° |
| 2026-04-26 08:27 | 48.05467 | 15.63169 | 18910 ft | 391 kts | 274° |
| 2026-04-26 08:27 | 48.05511 | 15.59080 | 19371 ft | 395 kts | 274° |
| 2026-04-26 08:27 | 48.05556 | 15.54960 | 19853 ft | 398 kts | 274° |
| 2026-04-26 08:27 | 48.05602 | 15.50817 | 20327 ft | 401 kts | 274° |
| 2026-04-26 08:28 | 48.05649 | 15.46630 | 20817 ft | 404 kts | 274° |
| 2026-04-26 08:28 | 48.05690 | 15.42424 | 21299 ft | 406 kts | 274° |
| 2026-04-26 08:28 | 48.05726 | 15.38174 | 21779 ft | 410 kts | 274° |
| 2026-04-26 08:28 | 48.05758 | 15.33953 | 22260 ft | 413 kts | 274° |
| 2026-04-26 08:29 | 48.05791 | 15.29648 | 22715 ft | 416 kts | 274° |
| 2026-04-26 08:29 | 48.05814 | 15.26721 | 23002 ft | 418 kts | 273° |
| 2026-04-26 08:30 | 48.05818 | 15.26219 | 23051 ft | 419 kts | 273° |
| 2026-04-26 08:30 | 48.05789 | 15.21755 | 23546 ft | 421 kts | 271° |
| 2026-04-26 08:31 | 48.05799 | 15.17368 | 23932 ft | 424 kts | 273° |
| 2026-04-26 08:31 | 48.05843 | 15.12951 | 24148 ft | 426 kts | 273° |
| 2026-04-26 08:31 | 48.05902 | 15.08493 | 24208 ft | 431 kts | 273° |
| 2026-04-26 08:31 | 48.05958 | 15.03996 | 24211 ft | 434 kts | 273° |
| 2026-04-26 08:32 | 48.06004 | 14.99470 | 24212 ft | 436 kts | 273° |
| 2026-04-26 08:32 | 48.06037 | 14.94931 | 24217 ft | 437 kts | 272° |
| 2026-04-26 08:32 | 48.06057 | 14.90386 | 24217 ft | 437 kts | 272° |
| 2026-04-26 08:32 | 48.06070 | 14.85838 | 24217 ft | 437 kts | 272° |
| 2026-04-26 08:33 | 48.06080 | 14.81347 | 24217 ft | 437 kts | 272° |
| 2026-04-26 08:33 | 48.06090 | 14.76745 | 24220 ft | 437 kts | 272° |
| 2026-04-26 08:33 | 48.06101 | 14.72199 | 24220 ft | 437 kts | 272° |
| 2026-04-26 08:33 | 48.06112 | 14.67716 | 24218 ft | 437 kts | 272° |
| 2026-04-26 08:34 | 48.06124 | 14.63172 | 24218 ft | 437 kts | 272° |
| 2026-04-26 08:34 | 48.06137 | 14.58630 | 24213 ft | 437 kts | 272° |
| 2026-04-26 08:34 | 48.06149 | 14.54091 | 24213 ft | 437 kts | 272° |
| 2026-04-26 08:34 | 48.06160 | 14.49543 | 24213 ft | 437 kts | 272° |
| 2026-04-26 08:35 | 48.06168 | 14.44993 | 24214 ft | 437 kts | 272° |
| 2026-04-26 08:35 | 48.06171 | 14.40451 | 24216 ft | 437 kts | 272° |
| 2026-04-26 08:35 | 48.06170 | 14.35892 | 24218 ft | 438 kts | 272° |
| 2026-04-26 08:35 | 48.06166 | 14.31345 | 24220 ft | 438 kts | 272° |
| 2026-04-26 08:36 | 48.06161 | 14.26801 | 24221 ft | 438 kts | 272° |
| 2026-04-26 08:36 | 48.06154 | 14.22248 | 24222 ft | 438 kts | 272° |
| 2026-04-26 08:36 | 48.06148 | 14.17697 | 24224 ft | 438 kts | 272° |
| 2026-04-26 08:36 | 48.06140 | 14.13148 | 24217 ft | 438 kts | 272° |
| 2026-04-26 08:37 | 48.06128 | 14.08593 | 24215 ft | 438 kts | 272° |
| 2026-04-26 08:37 | 48.06116 | 14.04043 | 24212 ft | 438 kts | 272° |
| 2026-04-26 08:37 | 48.06103 | 13.99522 | 24234 ft | 432 kts | 272° |
| 2026-04-26 08:37 | 48.06087 | 13.95051 | 24236 ft | 430 kts | 272° |
| 2026-04-26 08:38 | 48.06069 | 13.90585 | 24238 ft | 429 kts | 272° |
| 2026-04-26 08:38 | 48.06048 | 13.86192 | 24153 ft | 429 kts | 272° |
| 2026-04-26 08:38 | 48.06027 | 13.81718 | 23021 ft | 434 kts | 272° |
| 2026-04-26 08:38 | 48.06006 | 13.77163 | 21563 ft | 443 kts | 272° |
| 2026-04-26 08:39 | 48.05983 | 13.72534 | 20401 ft | 446 kts | 272° |
| 2026-04-26 08:39 | 48.05957 | 13.67908 | 19476 ft | 443 kts | 272° |
| 2026-04-26 08:39 | 48.05927 | 13.63324 | 18617 ft | 439 kts | 272° |
| 2026-04-26 08:39 | 48.05894 | 13.58785 | 17660 ft | 434 kts | 272° |
| 2026-04-26 08:40 | 48.05841 | 13.54296 | 16760 ft | 429 kts | 269° |
| 2026-04-26 08:40 | 48.05511 | 13.49885 | 15881 ft | 425 kts | 266° |
| 2026-04-26 08:40 | 48.05144 | 13.45533 | 15048 ft | 419 kts | 265° |
| 2026-04-26 08:40 | 48.04781 | 13.41241 | 14246 ft | 414 kts | 266° |
| 2026-04-26 08:41 | 48.04424 | 13.37009 | 13405 ft | 408 kts | 265° |
| 2026-04-26 08:41 | 48.04067 | 13.32827 | 12603 ft | 402 kts | 265° |
| 2026-04-26 08:41 | 48.03717 | 13.28762 | 12301 ft | 384 kts | 265° |
| 2026-04-26 08:41 | 48.03389 | 13.24960 | 12044 ft | 352 kts | 265° |
| 2026-04-26 08:42 | 48.03084 | 13.21493 | 11674 ft | 320 kts | 266° |
| 2026-04-26 08:42 | 48.02806 | 13.18332 | 11319 ft | 296 kts | 266° |
| 2026-04-26 08:42 | 48.02549 | 13.15347 | 10688 ft | 285 kts | 266° |
| 2026-04-26 08:42 | 48.02301 | 13.12418 | 10297 ft | 283 kts | 266° |
| 2026-04-26 08:43 | 48.02052 | 13.09528 | 10031 ft | 278 kts | 266° |
| 2026-04-26 08:43 | 48.01803 | 13.06680 | 9859 ft | 276 kts | 266° |
| 2026-04-26 08:43 | 48.01276 | 13.03917 | 9717 ft | 282 kts | 246° |
| 2026-04-26 08:43 | 48.00523 | 13.02307 | 9307 ft | 293 kts | 228° |
| 2026-04-26 08:44 | 47.98779 | 13.00717 | 8919 ft | 298 kts | 200° |
| 2026-04-26 08:44 | 47.96747 | 13.00370 | 8281 ft | 296 kts | 174° |
| 2026-04-26 08:44 | 47.94810 | 13.01399 | 7505 ft | 302 kts | 150° |
| 2026-04-26 08:44 | 47.92929 | 13.02907 | 6694 ft | 309 kts | 162° |
| 2026-04-26 08:45 | 47.90894 | 13.03578 | 6231 ft | 285 kts | 172° |
| 2026-04-26 08:45 | 47.88972 | 13.04105 | 5479 ft | 278 kts | 172° |
| 2026-04-26 08:45 | 47.87128 | 13.04639 | 5172 ft | 259 kts | 171° |
| 2026-04-26 08:45 | 47.85381 | 13.05162 | 4576 ft | 251 kts | 171° |
| 2026-04-26 08:46 | 47.83719 | 13.05669 | 4240 ft | 235 kts | 171° |
| 2026-04-26 08:46 | 47.82162 | 13.06139 | 3878 ft | 223 kts | 170° |
| 2026-04-26 08:46 | 47.80668 | 13.06576 | 3527 ft | 215 kts | 171° |
| 2026-04-26 08:46 | 47.79204 | 13.06984 | 3195 ft | 212 kts | 171° |
| 2026-04-26 08:47 | 47.77784 | 13.07392 | 2857 ft | 200 kts | 170° |
| 2026-04-26 08:47 | 47.76478 | 13.07776 | 2504 ft | 184 kts | 171° |
| 2026-04-26 08:47 | 47.75282 | 13.07812 | 2332 ft | 162 kts | 202° |
| 2026-04-26 08:47 | 47.74590 | 13.06708 | 2250 ft | 146 kts | 267° |
| 2026-04-26 08:48 | 47.74910 | 13.05370 | 2148 ft | 138 kts | 301° |
| 2026-04-26 08:48 | 47.75396 | 13.04142 | 1932 ft | 137 kts | 304° |
| 2026-04-26 08:48 | 47.75943 | 13.02970 | 1864 ft | 139 kts | 313° |
| 2026-04-26 08:48 | 47.76711 | 13.02107 | 1729 ft | 138 kts | 332° |
| 2026-04-26 08:49 | 47.77576 | 13.01486 | 1604 ft | 138 kts | 339° |
| 2026-04-26 08:49 | 47.78462 | 13.00942 | 1450 ft | 137 kts | 336° |
| 2026-04-26 08:49 | 47.79284 | 13.00422 | 1421 ft | 117 kts | 337° |
| 2026-04-26 08:49 | 47.79919 | 13.00022 | 1420 ft | 83 kts | 337° |
| 2026-04-26 08:50 | 47.80214 | 12.99837 | 1420 ft | 28 kts | 337° |
| 2026-04-26 08:50 | 47.80271 | 12.99673 | 1421 ft | 18 kts | 252° |
| 2026-04-26 08:50 | 47.80167 | 12.99603 | 1420 ft | 18 kts | 166° |
| 2026-04-26 08:50 | 47.80069 | 12.99662 | 1420 ft | 15 kts | 158° |
| 2026-04-26 08:51 | 47.79851 | 12.99802 | 1420 ft | 19 kts | 157° |
| 2026-04-26 08:51 | 47.79725 | 12.99881 | 1420 ft | 21 kts | 157° |
| 2026-04-26 08:51 | 47.79587 | 12.99967 | 1420 ft | 22 kts | 157° |
| 2026-04-26 08:52 | 47.79440 | 13.00061 | 1420 ft | 24 kts | 157° |
| 2026-04-26 08:52 | 47.79299 | 13.00149 | 1420 ft | 22 kts | 157° |
| 2026-04-26 08:52 | 47.79183 | 13.00223 | 1420 ft | 12 kts | 157° |
| 2026-04-26 08:52 | 47.79099 | 13.00276 | 1420 ft | 14 kts | 157° |
| 2026-04-26 08:53 | 47.79006 | 13.00333 | 1420 ft | 14 kts | 158° |
| 2026-04-26 08:53 | 47.78955 | 13.00274 | 1420 ft | 11 kts | 262° |
| 2026-04-26 08:53 | 47.78968 | 13.00155 | 1423 ft | 12 kts | 308° |
| 2026-04-26 08:53 | 47.79014 | 13.00118 | 1420 ft | 5 kts | 337° |
| 2026-04-26 08:54 | 47.79044 | 13.00100 | 1420 ft | 4 kts | 338° |
| 2026-04-26 08:54 | 47.79065 | 13.00087 | 1420 ft | 2 kts | 333° |
| 2026-04-26 08:54 | 47.79072 | 13.00075 | 1420 ft | 1 kts | 307° |
| 2026-04-26 08:54 | 47.79076 | 13.00053 | 1420 ft | 3 kts | 283° |
| 2026-04-26 08:55 | 47.79082 | 13.00016 | 1420 ft | 3 kts | 283° |
| 2026-04-26 08:55 | 47.79087 | 12.99982 | 1420 ft | 5 kts | 283° |
| 2026-04-26 08:55 | 47.79090 | 12.99966 | 1422 ft | 1 kts | 282° |
| 2026-04-26 08:55 | 47.79090 | 12.99962 | 1422 ft | 1 kts | 282° |
| 2026-04-26 08:56 | 47.79090 | 12.99960 | 1423 ft | 0 kts | 282° |